TimeCST,TemperatureF,Dew PointF,Humidity,Sea Level PressureIn,VisibilityMPH,Wind Direction,Wind SpeedMPH,Gust SpeedMPH,PrecipitationIn,Events,Conditions,WindDirDegrees,DateUTC
12:15 AM,62.6,46.4,55,29.81,10.0,SSW,16.1,25.3,N/A,,Clear,200,2012-11-11 06:15:00
12:35 AM,62.6,46.4,55,29.81,10.0,SSW,12.7,23.0,N/A,,Clear,200,2012-11-11 06:35:00
12:55 AM,62.6,46.4,55,29.81,10.0,SSW,15.0,25.3,N/A,,Clear,200,2012-11-11 06:55:00
1:15 AM,62.6,46.4,55,29.81,10.0,SSW,17.3,29.9,N/A,,Clear,200,2012-11-11 07:15:00
1:35 AM,62.6,46.4,55,29.82,10.0,SSW,18.4,26.5,N/A,,Clear,210,2012-11-11 07:35:00
1:55 AM,62.6,46.4,55,29.83,10.0,SSW,18.4,32.2,N/A,,Clear,210,2012-11-11 07:55:00
2:35 AM,62.6,46.4,55,29.84,10.0,SSW,18.4,27.6,N/A,,Clear,210,2012-11-11 08:35:00
2:55 AM,60.8,46.4,59,29.84,10.0,SSW,15.0,28.8,N/A,,Clear,210,2012-11-11 08:55:00
3:15 AM,60.8,46.4,59,29.84,10.0,SSW,18.4,26.5,N/A,,Clear,210,2012-11-11 09:15:00
3:35 AM,60.8,46.4,59,29.84,10.0,SSW,13.8,21.9,N/A,,Clear,210,2012-11-11 09:35:00
3:55 AM,60.8,46.4,59,29.84,10.0,SSW,17.3,24.2,N/A,,Clear,210,2012-11-11 09:55:00
4:15 AM,60.8,46.4,59,29.84,10.0,SSW,16.1,21.9,N/A,,Clear,200,2012-11-11 10:15:00
4:55 AM,59.0,46.4,63,29.83,10.0,SSW,10.4,20.7,N/A,,Clear,200,2012-11-11 10:55:00
5:15 AM,60.8,48.2,63,29.83,10.0,SSW,17.3,24.2,N/A,,Clear,200,2012-11-11 11:15:00
5:55 AM,59.0,48.2,67,29.83,10.0,South,15.0,21.9,N/A,,Clear,190,2012-11-11 11:55:00
6:15 AM,59.0,48.2,67,29.82,10.0,South,11.5,17.3,N/A,,Clear,180,2012-11-11 12:15:00
6:35 AM,59.0,48.2,67,29.81,10.0,South,12.7,20.7,N/A,,Clear,180,2012-11-11 12:35:00
6:55 AM,59.0,48.2,67,29.81,10.0,South,12.7,21.9,N/A,,Clear,180,2012-11-11 12:55:00
7:55 AM,60.8,48.2,63,29.81,10.0,South,16.1,27.6,N/A,,Clear,190,2012-11-11 13:55:00
8:15 AM,60.8,48.2,63,29.81,10.0,South,15.0,25.3,N/A,,Scattered Clouds,190,2012-11-11 14:15:00
8:55 AM,60.8,50.0,68,29.80,10.0,South,17.3,29.9,N/A,,Overcast,190,2012-11-11 14:55:00
9:15 AM,60.8,50.0,68,29.80,10.0,South,17.3,25.3,N/A,,Mostly Cloudy,170,2012-11-11 15:15:00
9:35 AM,62.6,50.0,63,29.79,10.0,South,13.8,26.5,N/A,,Mostly Cloudy,190,2012-11-11 15:35:00
10:15 AM,62.6,50.0,63,29.77,10.0,South,10.4,27.6,N/A,,Scattered Clouds,180,2012-11-11 16:15:00
10:35 AM,64.4,50.0,59,29.77,10.0,South,20.7,26.5,N/A,,Scattered Clouds,180,2012-11-11 16:35:00
11:15 AM,62.6,50.0,63,29.75,10.0,South,17.3,25.3,N/A,,Overcast,180,2012-11-11 17:15:00
11:35 AM,64.4,50.0,59,29.74,10.0,South,10.4,18.4,N/A,,Overcast,170,2012-11-11 17:35:00
11:55 AM,64.4,50.0,59,29.73,10.0,South,11.5,23.0,N/A,,Overcast,170,2012-11-11 17:55:00
12:15 PM,64.4,50.0,59,29.72,10.0,South,13.8,24.2,N/A,,Overcast,180,2012-11-11 18:15:00
12:35 PM,64.4,51.8,64,29.70,10.0,South,12.7,18.4,N/A,,Mostly Cloudy,170,2012-11-11 18:35:00
12:55 PM,64.4,51.8,64,29.71,10.0,South,18.4,23.0,N/A,,Overcast,180,2012-11-11 18:55:00
1:15 PM,64.4,51.8,64,29.69,10.0,South,15.0,27.6,N/A,,Overcast,170,2012-11-11 19:15:00
1:35 PM,64.4,51.8,64,29.69,10.0,South,17.3,26.5,N/A,,Overcast,180,2012-11-11 19:35:00
1:55 PM,64.4,50.0,59,29.67,10.0,South,12.7,23.0,N/A,,Overcast,180,2012-11-11 19:55:00
2:15 PM,64.4,51.8,64,29.66,10.0,South,11.5,19.6,N/A,,Overcast,170,2012-11-11 20:15:00
2:35 PM,64.4,51.8,64,29.66,10.0,South,16.1,26.5,N/A,,Overcast,170,2012-11-11 20:35:00
2:55 PM,64.4,50.0,59,29.65,10.0,South,10.4,21.9,N/A,,Overcast,170,2012-11-11 20:55:00
3:15 PM,64.4,50.0,59,29.64,10.0,SSE,15.0,25.3,N/A,,Overcast,160,2012-11-11 21:15:00
3:35 PM,64.4,51.8,64,29.65,10.0,South,16.1,24.2,N/A,Rain,Light Rain,180,2012-11-11 21:35:00
3:55 PM,62.6,53.6,72,29.66,10.0,South,19.6,29.9,N/A,Rain,Rain,190,2012-11-11 21:55:00
4:15 PM,60.8,53.6,77,29.66,5.0,South,17.3,27.6,0.03,Rain,Rain,190,2012-11-11 22:15:00
4:35 PM,55.4,50.0,82,29.72,5.0,West,20.7,27.6,0.08,Rain,Heavy Rain,260,2012-11-11 22:35:00
4:55 PM,51.8,50.0,94,29.73,7.0,WSW,11.5,-,0.10,Rain,Rain,250,2012-11-11 22:55:00
5:15 PM,51.8,50.0,94,29.75,5.0,WSW,9.2,-,N/A,Rain,Rain,250,2012-11-11 23:15:00
5:35 PM,51.8,50.0,94,29.73,7.0,WSW,4.6,-,0.02,Rain,Light Rain,240,2012-11-11 23:35:00
5:55 PM,51.8,50.0,94,29.74,7.0,SSW,4.6,-,0.03,Rain,Light Rain,200,2012-11-11 23:55:00
6:15 PM,51.8,50.0,94,29.75,10.0,SSW,4.6,-,0.02,Rain,Rain,200,2012-11-12 00:15:00
6:55 PM,51.8,50.0,94,29.77,10.0,South,8.1,-,0.05,,Drizzle,190,2012-11-12 00:55:00
7:15 PM,51.8,50.0,94,29.78,7.0,SSW,9.2,-,N/A,Rain,Rain,200,2012-11-12 01:15:00
7:35 PM,51.8,50.0,94,29.76,7.0,South,9.2,-,0.02,Rain,Heavy Rain,190,2012-11-12 01:35:00
7:55 PM,51.8,50.0,94,29.78,10.0,South,12.7,-,0.03,Rain,Rain,190,2012-11-12 01:55:00
8:15 PM,51.8,50.0,94,29.77,10.0,SSW,8.1,-,0.01,Rain,Light Rain,200,2012-11-12 02:15:00
8:35 PM,51.8,50.0,94,29.77,10.0,SSW,8.1,-,0.02,Rain,Light Rain,200,2012-11-12 02:35:00
8:55 PM,51.8,50.0,94,29.78,7.0,SSW,15.0,19.6,0.03,Rain,Rain,210,2012-11-12 02:55:00
9:15 PM,50.0,46.4,87,29.80,7.0,WSW,13.8,21.9,0.01,Rain,Light Rain,250,2012-11-12 03:15:00
10:15 PM,44.6,41.0,87,29.82,10.0,West,11.5,23.0,N/A,Rain,Rain,260,2012-11-12 04:15:00
10:35 PM,42.8,41.0,93,29.83,10.0,West,17.3,-,N/A,,Light Drizzle,260,2012-11-12 04:35:00
10:55 PM,41.0,37.4,87,29.84,10.0,WSW,11.5,19.6,N/A,Rain,Rain,250,2012-11-12 04:55:00
11:15 PM,39.2,35.6,87,29.85,10.0,West,12.7,20.7,N/A,Rain,Rain,260,2012-11-12 05:15:00
11:55 PM,37.4,35.6,93,29.85,10.0,West,15.0,21.9,N/A,,Overcast,270,2012-11-12 05:55:00